createdAt,value
2022-11-13T00:00:22.459Z,1026.00
2022-11-13T00:01:22.545Z,1025.97
2022-11-13T00:03:23.212Z,1025.97
2022-11-13T00:04:23.169Z,1025.95
2022-11-13T00:05:23.142Z,1025.90
2022-11-13T00:06:23.201Z,1025.91
2022-11-13T00:07:23.159Z,1025.92
2022-11-13T00:08:23.126Z,1025.90
2022-11-13T00:09:23.080Z,1025.90
2022-11-13T00:10:23.061Z,1025.89
2022-11-13T00:11:23.057Z,1025.87
2022-11-13T00:12:23.069Z,1025.89
2022-11-13T00:13:27.505Z,1025.92
2022-11-13T00:14:24.026Z,1025.87
2022-11-13T00:15:23.030Z,1025.88
2022-11-13T00:16:22.998Z,1025.83
2022-11-13T00:17:22.998Z,1025.83
2022-11-13T00:18:22.993Z,1025.86
2022-11-13T00:19:22.957Z,1025.85
2022-11-13T00:20:22.953Z,1025.83
2022-11-13T00:21:22.953Z,1025.80
2022-11-13T00:22:22.907Z,1025.82
2022-11-13T00:23:22.983Z,1025.80
2022-11-13T00:24:22.912Z,1025.83
2022-11-13T00:25:22.884Z,1025.81
2022-11-13T00:26:22.938Z,1025.81
2022-11-13T00:27:22.864Z,1025.78
2022-11-13T00:28:22.863Z,1025.80
2022-11-13T00:29:22.872Z,1025.79
2022-11-13T00:30:22.855Z,1025.75
2022-11-13T00:31:22.799Z,1025.80
2022-11-13T00:32:22.796Z,1025.77
2022-11-13T00:33:45.443Z,1025.76
2022-11-13T00:34:46.576Z,1025.76
2022-11-13T00:35:23.764Z,1025.76
2022-11-13T00:36:26.060Z,1025.78
2022-11-13T00:37:22.819Z,1025.79
2022-11-13T00:38:22.727Z,1025.80
2022-11-13T00:39:22.730Z,1025.79
2022-11-13T00:40:22.713Z,1025.74
2022-11-13T00:41:22.692Z,1025.77
2022-11-13T00:42:22.676Z,1025.71
2022-11-13T00:43:22.668Z,1025.70
2022-11-13T00:44:22.673Z,1025.69
2022-11-13T00:45:22.636Z,1025.69
2022-11-13T00:46:22.629Z,1025.67
2022-11-13T00:47:22.619Z,1025.67
2022-11-13T00:48:22.636Z,1025.68
2022-11-13T00:49:22.597Z,1025.65
2022-11-13T00:50:22.590Z,1025.63
2022-11-13T00:51:22.566Z,1025.65
2022-11-13T00:52:22.550Z,1025.62
2022-11-13T00:53:22.547Z,1025.57
2022-11-13T00:54:22.536Z,1025.60
2022-11-13T00:55:22.517Z,1025.58
2022-11-13T00:56:22.497Z,1025.56
2022-11-13T00:57:22.501Z,1025.54
2022-11-13T00:58:22.490Z,1025.52
2022-11-13T00:59:22.497Z,1025.57
2022-11-13T01:00:22.515Z,1025.51
2022-11-13T01:01:22.456Z,1025.53
2022-11-13T01:02:22.450Z,1025.55
2022-11-13T01:03:22.418Z,1025.54
2022-11-13T01:04:22.416Z,1025.53
2022-11-13T01:05:22.450Z,1025.53
2022-11-13T01:06:22.402Z,1025.49
2022-11-13T01:07:22.452Z,1025.54
2022-11-13T01:08:22.361Z,1025.53
2022-11-13T01:09:22.364Z,1025.55
2022-11-13T01:10:22.372Z,1025.55
2022-11-13T01:11:22.322Z,1025.54
2022-11-13T01:12:22.302Z,1025.48
2022-11-13T01:13:22.308Z,1025.54
2022-11-13T01:14:22.304Z,1025.52
2022-11-13T01:15:22.295Z,1025.50
2022-11-13T01:16:22.296Z,1025.46
2022-11-13T01:17:22.244Z,1025.48
2022-11-13T01:18:22.260Z,1025.46
2022-11-13T01:19:22.222Z,1025.49
2022-11-13T01:20:22.235Z,1025.47
2022-11-13T01:21:22.229Z,1025.47
2022-11-13T01:22:22.188Z,1025.48
2022-11-13T01:23:22.190Z,1025.46
2022-11-13T01:24:22.212Z,1025.47
2022-11-13T01:25:22.172Z,1025.47
2022-11-13T01:26:22.142Z,1025.43
2022-11-13T01:27:22.142Z,1025.43
2022-11-13T01:28:22.106Z,1025.42
2022-11-13T01:29:22.113Z,1025.40
2022-11-13T01:30:22.151Z,1025.37
2022-11-13T01:31:22.074Z,1025.35
2022-11-13T01:32:22.086Z,1025.38
2022-11-13T01:33:22.069Z,1025.37
2022-11-13T01:34:22.080Z,1025.37
2022-11-13T01:35:22.078Z,1025.36
2022-11-13T01:36:22.041Z,1025.34
2022-11-13T01:37:21.989Z,1025.33
2022-11-13T01:38:22.005Z,1025.28
2022-11-13T01:39:21.976Z,1025.30
2022-11-13T01:40:21.965Z,1025.26
2022-11-13T01:41:23.649Z,1025.25
2022-11-13T01:42:21.931Z,1025.25
2022-11-13T01:43:21.961Z,1025.20
2022-11-13T01:44:21.942Z,1025.21
2022-11-13T01:45:21.960Z,1025.20
2022-11-13T01:46:21.880Z,1025.15
2022-11-13T01:47:21.876Z,1025.18
2022-11-13T01:48:21.867Z,1025.17
2022-11-13T01:49:21.910Z,1025.12
2022-11-13T01:50:21.879Z,1025.17
2022-11-13T01:51:21.830Z,1025.14
2022-11-13T01:52:21.830Z,1025.13
2022-11-13T01:53:21.822Z,1025.17
2022-11-13T01:54:21.831Z,1025.12
2022-11-13T01:55:21.914Z,1025.14
2022-11-13T01:56:21.800Z,1025.14
2022-11-13T01:57:21.798Z,1025.16
2022-11-13T01:58:21.753Z,1025.13
2022-11-13T01:59:21.757Z,1025.12
2022-11-13T02:00:21.730Z,1025.14
2022-11-13T02:01:21.776Z,1025.13
2022-11-13T02:02:21.704Z,1025.11
2022-11-13T02:03:21.703Z,1025.11
2022-11-13T02:04:21.664Z,1025.17
2022-11-13T02:05:21.682Z,1025.06
2022-11-13T02:06:21.656Z,1025.08
2022-11-13T02:07:21.751Z,1025.09
2022-11-13T02:08:21.632Z,1025.04
2022-11-13T02:09:21.630Z,1025.05
2022-11-13T02:10:21.605Z,1025.07
2022-11-13T02:11:21.579Z,1025.01
2022-11-13T02:12:21.593Z,1025.02
2022-11-13T02:13:21.587Z,1025.07
2022-11-13T02:14:21.545Z,1025.05
2022-11-13T02:15:21.549Z,1025.04
2022-11-13T02:16:21.541Z,1025.02
2022-11-13T02:17:21.541Z,1024.97
2022-11-13T02:18:21.635Z,1024.98
2022-11-13T02:19:21.498Z,1024.97
2022-11-13T02:20:21.514Z,1024.93
2022-11-13T02:21:21.473Z,1024.96
2022-11-13T02:22:21.486Z,1024.95
2022-11-13T02:23:21.457Z,1024.96
2022-11-13T02:24:21.451Z,1024.95
2022-11-13T02:25:21.454Z,1024.94
2022-11-13T02:26:21.426Z,1024.96
2022-11-13T02:27:21.424Z,1024.98
2022-11-13T02:28:21.413Z,1024.96
2022-11-13T02:29:21.398Z,1024.94
2022-11-13T02:30:26.495Z,1024.99
2022-11-13T02:31:22.347Z,1025.00
2022-11-13T02:32:21.338Z,1024.94
2022-11-13T02:33:21.324Z,1024.94
2022-11-13T02:34:21.340Z,1024.95
2022-11-13T02:35:21.336Z,1024.95
2022-11-13T02:36:21.300Z,1024.91
2022-11-13T02:37:21.296Z,1024.91
2022-11-13T02:38:21.288Z,1024.87
2022-11-13T02:39:21.268Z,1024.89
2022-11-13T02:40:21.282Z,1024.87
2022-11-13T02:41:21.265Z,1024.84
2022-11-13T02:42:21.221Z,1024.86
2022-11-13T02:43:21.198Z,1024.85
2022-11-13T02:44:21.189Z,1024.85
2022-11-13T02:45:21.211Z,1024.86
2022-11-13T02:46:21.172Z,1024.81
2022-11-13T02:47:21.177Z,1024.84
2022-11-13T02:48:21.152Z,1024.81
2022-11-13T02:49:21.121Z,1024.78
2022-11-13T02:50:21.173Z,1024.77
2022-11-13T02:51:21.135Z,1024.80
2022-11-13T02:52:21.198Z,1024.80
2022-11-13T02:53:21.102Z,1024.78
2022-11-13T02:54:21.070Z,1024.71
2022-11-13T02:55:21.158Z,1024.74
2022-11-13T02:56:21.100Z,1024.75
2022-11-13T02:57:21.053Z,1024.75
2022-11-13T02:58:21.017Z,1024.73
2022-11-13T02:59:21.044Z,1024.75
2022-11-13T03:00:21.004Z,1024.77
2022-11-13T03:01:21.049Z,1024.80
2022-11-13T03:02:20.978Z,1024.76
2022-11-13T03:03:41.063Z,1024.72
2022-11-13T03:04:21.986Z,1024.76
2022-11-13T03:05:20.945Z,1024.76
2022-11-13T03:06:20.967Z,1024.73
2022-11-13T03:07:20.948Z,1024.76
2022-11-13T03:08:20.913Z,1024.74
2022-11-13T03:09:20.886Z,1024.78
2022-11-13T03:10:20.890Z,1024.75
2022-11-13T03:11:20.879Z,1024.74
2022-11-13T03:12:20.867Z,1024.75
2022-11-13T03:13:20.849Z,1024.72
2022-11-13T03:14:20.823Z,1024.68
2022-11-13T03:15:20.833Z,1024.70
2022-11-13T03:16:20.824Z,1024.68
2022-11-13T03:17:20.798Z,1024.66
2022-11-13T03:18:20.788Z,1024.67
2022-11-13T03:19:20.768Z,1024.61
2022-11-13T03:20:20.771Z,1024.61
2022-11-13T03:21:20.751Z,1024.60
2022-11-13T03:22:20.757Z,1024.57
2022-11-13T03:23:20.721Z,1024.54
2022-11-13T03:24:20.708Z,1024.58
2022-11-13T03:25:20.709Z,1024.52
2022-11-13T03:26:20.686Z,1024.52
2022-11-13T03:27:20.687Z,1024.53
2022-11-13T03:28:20.679Z,1024.53
2022-11-13T03:29:20.681Z,1024.55
2022-11-13T03:30:20.668Z,1024.55
2022-11-13T03:31:20.631Z,1024.52
2022-11-13T03:32:20.645Z,1024.53
2022-11-13T03:33:20.601Z,1024.54
2022-11-13T03:34:20.651Z,1024.50
2022-11-13T03:35:20.584Z,1024.50
2022-11-13T03:36:20.563Z,1024.49
2022-11-13T03:37:20.642Z,1024.50
2022-11-13T03:38:20.613Z,1024.47
2022-11-13T03:39:20.556Z,1024.48
2022-11-13T03:40:20.511Z,1024.45
2022-11-13T03:41:20.495Z,1024.47
2022-11-13T03:42:20.514Z,1024.46
2022-11-13T03:43:20.519Z,1024.45
2022-11-13T03:44:20.462Z,1024.45
2022-11-13T03:45:20.472Z,1024.40
2022-11-13T03:46:20.451Z,1024.45
2022-11-13T03:47:20.465Z,1024.41
2022-11-13T03:48:20.441Z,1024.42
2022-11-13T03:49:20.408Z,1024.38
2022-11-13T03:50:20.414Z,1024.42
2022-11-13T03:51:20.389Z,1024.35
2022-11-13T03:52:20.359Z,1024.34
2022-11-13T03:53:20.366Z,1024.35
2022-11-13T03:54:20.433Z,1024.33
2022-11-13T03:55:20.336Z,1024.33
2022-11-13T03:56:20.362Z,1024.31
2022-11-13T03:57:20.309Z,1024.32
2022-11-13T03:58:20.289Z,1024.29
2022-11-13T03:59:39.870Z,1024.27
2022-11-13T04:00:20.286Z,1024.26
2022-11-13T04:01:20.298Z,1024.22
2022-11-13T04:02:20.263Z,1024.24
2022-11-13T04:03:20.245Z,1024.24
2022-11-13T04:04:20.322Z,1024.23
2022-11-13T04:05:22.911Z,1024.22
2022-11-13T04:06:20.199Z,1024.22
2022-11-13T04:07:20.243Z,1024.21
2022-11-13T04:08:20.203Z,1024.21
2022-11-13T04:09:20.155Z,1024.22
2022-11-13T04:10:20.832Z,1024.20
2022-11-13T04:11:20.123Z,1024.18
2022-11-13T04:12:20.162Z,1024.18
2022-11-13T04:13:20.115Z,1024.16
2022-11-13T04:14:20.136Z,1024.21
2022-11-13T04:15:20.095Z,1024.19
2022-11-13T04:16:20.216Z,1024.16
2022-11-13T04:17:20.055Z,1024.17
2022-11-13T04:18:20.074Z,1024.17
2022-11-13T04:19:20.047Z,1024.19
2022-11-13T04:20:20.036Z,1024.19
2022-11-13T04:21:20.015Z,1024.14
2022-11-13T04:22:19.993Z,1024.15
2022-11-13T04:23:20.029Z,1024.15
2022-11-13T04:24:20.039Z,1024.14
2022-11-13T04:25:19.986Z,1024.12
2022-11-13T04:26:20.009Z,1024.15
2022-11-13T04:27:19.937Z,1024.11
2022-11-13T04:28:19.956Z,1024.17
2022-11-13T04:29:19.945Z,1024.11
2022-11-13T04:30:19.897Z,1024.13
2022-11-13T04:31:19.892Z,1024.12
2022-11-13T04:32:19.875Z,1024.16
2022-11-13T04:33:19.860Z,1024.14
2022-11-13T04:34:19.868Z,1024.16
2022-11-13T04:35:19.866Z,1024.10
2022-11-13T04:36:19.837Z,1024.12
2022-11-13T04:37:19.829Z,1024.10
2022-11-13T04:38:19.800Z,1024.11
2022-11-13T04:39:19.798Z,1024.07
2022-11-13T04:40:19.782Z,1024.06
2022-11-13T04:41:19.790Z,1024.03
2022-11-13T04:42:19.762Z,1024.02
2022-11-13T04:43:19.742Z,1024.03
2022-11-13T04:44:19.752Z,1024.05
2022-11-13T04:45:19.721Z,1024.02
2022-11-13T04:46:19.706Z,1024.03
2022-11-13T04:47:19.725Z,1024.03
2022-11-13T04:48:19.694Z,1024.05
2022-11-13T04:49:19.667Z,1024.04
2022-11-13T04:50:19.696Z,1024.07
2022-11-13T04:51:19.642Z,1024.04
2022-11-13T04:52:19.651Z,1024.04
2022-11-13T04:53:19.685Z,1024.05
2022-11-13T04:54:23.078Z,1024.00
2022-11-13T04:55:20.604Z,1024.03
2022-11-13T04:56:19.633Z,1023.99
2022-11-13T04:57:19.581Z,1023.98
2022-11-13T04:58:19.572Z,1023.97
2022-11-13T04:59:19.554Z,1023.95
2022-11-13T05:00:19.605Z,1023.95
2022-11-13T05:01:19.605Z,1023.95
2022-11-13T05:02:19.536Z,1023.92
2022-11-13T05:03:19.503Z,1023.93
2022-11-13T05:04:19.513Z,1023.95
2022-11-13T05:05:19.478Z,1023.94
2022-11-13T05:06:19.482Z,1023.95
2022-11-13T05:07:19.542Z,1023.95
2022-11-13T05:08:19.445Z,1023.95
2022-11-13T05:09:19.429Z,1023.96
2022-11-13T05:10:19.451Z,1023.99
2022-11-13T05:11:19.393Z,1023.94
2022-11-13T05:12:19.403Z,1023.95
2022-11-13T05:13:19.533Z,1023.96
2022-11-13T05:14:19.408Z,1023.87
2022-11-13T05:15:19.347Z,1023.90
2022-11-13T05:16:19.349Z,1023.90
2022-11-13T05:17:19.365Z,1023.94
2022-11-13T05:18:19.359Z,1023.91
2022-11-13T05:19:19.331Z,1023.91
2022-11-13T05:20:19.290Z,1023.94
2022-11-13T05:21:19.262Z,1023.94
2022-11-13T05:22:19.242Z,1023.94
2022-11-13T05:23:19.249Z,1023.97
2022-11-13T05:24:19.257Z,1023.91
2022-11-13T05:25:19.261Z,1023.92
2022-11-13T05:26:19.266Z,1023.92
2022-11-13T05:27:19.247Z,1023.92
2022-11-13T05:28:19.186Z,1023.91
2022-11-13T05:29:19.179Z,1023.94
2022-11-13T05:30:19.147Z,1023.94
2022-11-13T05:31:19.184Z,1023.89
2022-11-13T05:32:19.171Z,1023.88
2022-11-13T05:33:19.138Z,1023.93
2022-11-13T05:34:19.138Z,1023.90
2022-11-13T05:35:19.102Z,1023.89
2022-11-13T05:36:19.074Z,1023.93
2022-11-13T05:37:19.097Z,1023.94
2022-11-13T05:38:19.083Z,1023.91
2022-11-13T05:39:19.046Z,1023.89
2022-11-13T05:40:19.051Z,1023.92
2022-11-13T05:41:19.012Z,1023.88
2022-11-13T05:42:19.036Z,1023.85
2022-11-13T05:43:18.992Z,1023.85
2022-11-13T05:44:18.977Z,1023.84
2022-11-13T05:45:18.995Z,1023.85
2022-11-13T05:46:18.950Z,1023.85
2022-11-13T05:47:18.973Z,1023.78
2022-11-13T05:48:18.933Z,1023.74
2022-11-13T05:49:18.915Z,1023.74
2022-11-13T05:50:18.894Z,1023.74
2022-11-13T05:51:18.892Z,1023.74
2022-11-13T05:52:18.865Z,1023.77
2022-11-13T05:53:18.847Z,1023.71
2022-11-13T05:54:18.875Z,1023.69
2022-11-13T05:55:23.030Z,1023.71
2022-11-13T05:56:18.870Z,1023.67
2022-11-13T05:57:18.810Z,1023.70
2022-11-13T05:58:18.774Z,1023.69
2022-11-13T05:59:18.782Z,1023.71
2022-11-13T06:00:18.786Z,1023.71
2022-11-13T06:01:18.792Z,1023.70
2022-11-13T06:02:18.798Z,1023.73
2022-11-13T06:03:18.784Z,1023.64
2022-11-13T06:04:18.726Z,1023.65
2022-11-13T06:05:27.697Z,1023.64
2022-11-13T06:06:18.890Z,1023.63
2022-11-13T06:07:18.923Z,1023.61
2022-11-13T06:08:18.895Z,1023.66
2022-11-13T06:09:18.919Z,1023.64
2022-11-13T06:10:18.667Z,1023.60
2022-11-13T06:11:18.655Z,1023.59
2022-11-13T06:12:18.638Z,1023.56
2022-11-13T06:13:18.637Z,1023.50
2022-11-13T06:14:18.696Z,1023.53
2022-11-13T06:15:18.571Z,1023.48
2022-11-13T06:16:18.553Z,1023.45
2022-11-13T06:17:18.588Z,1023.47
2022-11-13T06:18:22.500Z,1023.44
2022-11-13T06:19:19.506Z,1023.42
2022-11-13T06:20:18.576Z,1023.44
2022-11-13T06:21:18.525Z,1023.41
2022-11-13T06:22:18.486Z,1023.42
2022-11-13T06:23:18.479Z,1023.38
2022-11-13T06:24:18.459Z,1023.37
2022-11-13T06:25:18.451Z,1023.37
2022-11-13T06:26:18.448Z,1023.35
2022-11-13T06:27:18.491Z,1023.34
2022-11-13T06:28:28.890Z,1023.35
2022-11-13T06:29:18.497Z,1023.35
2022-11-13T06:30:18.516Z,1023.28
2022-11-13T06:31:18.468Z,1023.29
2022-11-13T06:32:18.378Z,1023.26
2022-11-13T06:33:18.334Z,1023.33
2022-11-13T06:34:18.304Z,1023.28
2022-11-13T06:35:18.323Z,1023.25
2022-11-13T06:36:18.304Z,1023.33
2022-11-13T06:37:18.306Z,1023.34
2022-11-13T06:38:18.273Z,1023.31
2022-11-13T06:39:18.321Z,1023.33
2022-11-13T06:40:18.237Z,1023.38
2022-11-13T06:41:18.364Z,1023.37
2022-11-13T06:42:18.417Z,1023.34
2022-11-13T06:43:18.226Z,1023.35
2022-11-13T06:44:18.205Z,1023.34
2022-11-13T06:45:18.209Z,1023.35
2022-11-13T06:46:18.285Z,1023.34
2022-11-13T06:47:18.203Z,1023.34
2022-11-13T06:48:18.183Z,1023.33
2022-11-13T06:49:18.119Z,1023.32
2022-11-13T06:50:18.113Z,1023.34
2022-11-13T06:51:18.125Z,1023.35
2022-11-13T06:52:18.109Z,1023.32
2022-11-13T06:53:18.120Z,1023.31
2022-11-13T06:54:18.065Z,1023.26
2022-11-13T06:55:18.080Z,1023.29
2022-11-13T06:56:18.097Z,1023.29
2022-11-13T06:57:18.016Z,1023.29
2022-11-13T06:58:18.036Z,1023.28
2022-11-13T06:59:18.048Z,1023.26
2022-11-13T07:00:18.018Z,1023.27
2022-11-13T07:01:18.104Z,1023.26
2022-11-13T07:02:17.929Z,1023.27
2022-11-13T07:03:17.929Z,1023.21
2022-11-13T07:04:18.048Z,1023.22
2022-11-13T07:05:18.071Z,1023.22
2022-11-13T07:06:17.992Z,1023.20
2022-11-13T07:07:18.506Z,1023.20
2022-11-13T07:08:17.921Z,1023.13
2022-11-13T07:09:17.997Z,1023.13
2022-11-13T07:10:17.970Z,1023.16
2022-11-13T07:11:17.861Z,1023.15
2022-11-13T07:12:17.861Z,1023.19
2022-11-13T07:13:17.850Z,1023.13
2022-11-13T07:14:17.853Z,1023.14
2022-11-13T07:15:17.984Z,1023.12
2022-11-13T07:16:18.367Z,1023.13
2022-11-13T07:17:17.802Z,1023.10
2022-11-13T07:18:21.503Z,1023.14
2022-11-13T07:19:18.781Z,1023.12
2022-11-13T07:20:17.755Z,1023.14
2022-11-13T07:21:17.699Z,1023.10
2022-11-13T07:22:17.783Z,1023.11
2022-11-13T07:23:17.795Z,1023.11
2022-11-13T07:24:17.802Z,1023.11
2022-11-13T07:25:17.690Z,1023.09
2022-11-13T07:26:17.666Z,1023.11
2022-11-13T07:27:17.658Z,1023.07
2022-11-13T07:28:17.753Z,1023.02
2022-11-13T07:29:17.716Z,1023.05
2022-11-13T07:30:17.583Z,1023.03
2022-11-13T07:31:17.657Z,1023.03
2022-11-13T07:32:17.640Z,1022.98
2022-11-13T07:33:17.544Z,1022.97
2022-11-13T07:34:17.560Z,1022.94
2022-11-13T07:35:17.527Z,1022.97
2022-11-13T07:36:17.494Z,1022.94
2022-11-13T07:37:17.525Z,1022.95
2022-11-13T07:38:17.556Z,1022.97
2022-11-13T07:39:17.509Z,1022.94
2022-11-13T07:40:17.531Z,1022.92
2022-11-13T07:41:17.566Z,1022.95
2022-11-13T07:42:17.415Z,1022.96
2022-11-13T07:43:17.418Z,1022.94
2022-11-13T07:44:39.940Z,1022.97
2022-11-13T07:45:18.377Z,1022.97
2022-11-13T07:46:17.373Z,1022.92
2022-11-13T07:47:17.418Z,1022.90
2022-11-13T07:48:17.364Z,1022.92
2022-11-13T07:49:17.350Z,1022.89
2022-11-13T07:50:17.349Z,1022.89
2022-11-13T07:51:17.287Z,1022.89
2022-11-13T07:52:17.276Z,1022.91
2022-11-13T07:53:17.296Z,1022.91
2022-11-13T07:54:17.307Z,1022.91
2022-11-13T07:55:17.347Z,1022.91
2022-11-13T07:56:22.731Z,1022.89
2022-11-13T07:57:18.224Z,1022.89
2022-11-13T07:58:17.296Z,1022.91
2022-11-13T07:59:17.236Z,1022.89
2022-11-13T08:00:17.187Z,1022.87
2022-11-13T08:01:17.383Z,1022.88
2022-11-13T08:02:17.195Z,1022.87
2022-11-13T08:03:17.164Z,1022.86
2022-11-13T08:04:17.178Z,1022.82
2022-11-13T08:05:17.195Z,1022.84
2022-11-13T08:06:17.132Z,1022.83
2022-11-13T08:07:17.267Z,1022.88
2022-11-13T08:08:17.179Z,1022.86
2022-11-13T08:09:17.091Z,1022.87
2022-11-13T08:10:17.107Z,1022.85
2022-11-13T08:11:17.055Z,1022.83
2022-11-13T08:12:17.073Z,1022.82
2022-11-13T08:13:17.046Z,1022.84
2022-11-13T08:14:17.019Z,1022.81
2022-11-13T08:15:17.005Z,1022.82
2022-11-13T08:16:17.055Z,1022.80
2022-11-13T08:17:16.980Z,1022.78
2022-11-13T08:18:17.691Z,1022.76
2022-11-13T08:19:17.002Z,1022.78
2022-11-13T08:20:17.002Z,1022.74
2022-11-13T08:21:16.933Z,1022.73
2022-11-13T08:22:16.991Z,1022.71
2022-11-13T08:23:17.030Z,1022.74
2022-11-13T08:24:16.851Z,1022.73
2022-11-13T08:25:16.960Z,1022.73
2022-11-13T08:26:17.002Z,1022.69
2022-11-13T08:27:16.832Z,1022.73
2022-11-13T08:28:16.929Z,1022.75
2022-11-13T08:29:16.875Z,1022.75
2022-11-13T08:30:16.895Z,1022.77
2022-11-13T08:31:16.927Z,1022.75
2022-11-13T08:32:16.801Z,1022.73
2022-11-13T08:33:17.591Z,1022.74
2022-11-13T08:34:16.820Z,1022.75
2022-11-13T08:35:19.480Z,1022.72
2022-11-13T08:36:16.886Z,1022.70
2022-11-13T08:37:16.741Z,1022.69
2022-11-13T08:38:16.728Z,1022.69
2022-11-13T08:39:16.719Z,1022.64
2022-11-13T08:40:16.760Z,1022.68
2022-11-13T08:41:16.787Z,1022.66
2022-11-13T08:42:16.682Z,1022.65
2022-11-13T08:43:16.668Z,1022.62
2022-11-13T08:44:16.652Z,1022.66
2022-11-13T08:45:16.644Z,1022.62
2022-11-13T08:46:25.388Z,1022.65
2022-11-13T08:47:16.727Z,1022.57
2022-11-13T08:48:16.622Z,1022.57
2022-11-13T08:49:23.305Z,1022.53
2022-11-13T08:50:16.575Z,1022.54
2022-11-13T08:53:12.146Z,1022.50
2022-11-13T08:54:12.196Z,1022.49
2022-11-13T08:55:12.327Z,1022.47
2022-11-13T08:56:12.518Z,1022.46
2022-11-13T08:57:13.247Z,1022.42
2022-11-13T08:58:15.376Z,1022.41
2022-11-13T08:59:16.270Z,1022.31
2022-11-13T09:00:38.992Z,1022.32
2022-11-13T09:01:19.683Z,1022.31
2022-11-13T09:02:13.853Z,1022.26
2022-11-13T09:03:14.985Z,1022.27
2022-11-13T09:04:12.744Z,1022.25
2022-11-13T09:05:12.931Z,1022.21
2022-11-13T09:06:12.586Z,1022.20
2022-11-13T09:07:12.053Z,1022.16
2022-11-13T09:08:12.231Z,1022.20
2022-11-13T09:09:12.102Z,1022.13
2022-11-13T09:10:14.189Z,1022.14
2022-11-13T09:11:15.156Z,1022.17
2022-11-13T09:12:13.085Z,1022.18
2022-11-13T09:13:12.859Z,1022.16
2022-11-13T09:14:12.044Z,1022.15
2022-11-13T09:15:13.875Z,1022.16
2022-11-13T09:16:11.826Z,1022.16
2022-11-13T09:17:13.534Z,1022.17
2022-11-13T09:18:11.944Z,1022.13
2022-11-13T09:19:12.144Z,1022.13
2022-11-13T09:20:14.009Z,1022.08
2022-11-13T09:21:13.250Z,1022.07
2022-11-13T09:22:12.087Z,1022.06
2022-11-13T09:23:11.579Z,1022.04
2022-11-13T09:24:11.701Z,1022.02
2022-11-13T09:25:14.228Z,1022.02
2022-11-13T09:26:11.629Z,1021.97
2022-11-13T09:27:11.552Z,1021.99
2022-11-13T09:28:11.522Z,1022.03
2022-11-13T09:29:11.762Z,1022.03
2022-11-13T09:30:15.394Z,1022.01
2022-11-13T09:31:11.624Z,1021.98
2022-11-13T09:32:11.491Z,1022.00
2022-11-13T09:33:11.557Z,1021.98
2022-11-13T09:34:11.516Z,1021.99
2022-11-13T09:35:11.501Z,1022.01
2022-11-13T09:36:11.529Z,1022.04
2022-11-13T09:37:11.582Z,1022.01
2022-11-13T09:38:11.832Z,1021.99
2022-11-13T09:39:11.657Z,1022.00
2022-11-13T09:40:11.432Z,1022.01
2022-11-13T09:41:11.390Z,1022.02
2022-11-13T09:42:11.388Z,1021.98
2022-11-13T09:43:11.381Z,1021.95
2022-11-13T09:44:11.323Z,1021.94
2022-11-13T09:45:11.362Z,1021.92
2022-11-13T09:46:11.395Z,1021.90
2022-11-13T09:47:11.292Z,1021.87
2022-11-13T09:48:11.253Z,1021.91
2022-11-13T09:49:11.326Z,1021.87
2022-11-13T09:50:11.326Z,1021.87
2022-11-13T09:51:11.282Z,1021.88
2022-11-13T09:52:11.233Z,1021.87
2022-11-13T09:53:11.142Z,1021.88
2022-11-13T09:54:11.212Z,1021.89
2022-11-13T09:55:11.325Z,1021.90
2022-11-13T09:56:11.200Z,1021.90
2022-11-13T09:57:12.547Z,1021.88
2022-11-13T09:59:19.662Z,1021.89
2022-11-13T10:00:11.417Z,1021.85
2022-11-13T10:01:11.269Z,1021.77
2022-11-13T10:02:11.326Z,1021.84
2022-11-13T10:03:11.186Z,1021.85
2022-11-13T10:04:14.290Z,1021.76
2022-11-13T10:05:11.010Z,1021.80
2022-11-13T10:06:10.995Z,1021.81
2022-11-13T10:07:11.084Z,1021.80
2022-11-13T10:08:11.004Z,1021.80
2022-11-13T10:09:10.948Z,1021.82
2022-11-13T10:10:10.925Z,1021.81
2022-11-13T10:11:10.900Z,1021.75
2022-11-13T10:12:10.931Z,1021.80
2022-11-13T10:13:10.887Z,1021.80
2022-11-13T10:14:10.889Z,1021.79
2022-11-13T10:15:25.338Z,1021.76
2022-11-13T10:16:10.933Z,1021.74
2022-11-13T10:17:10.850Z,1021.81
2022-11-13T10:18:10.940Z,1021.76
2022-11-13T10:19:10.830Z,1021.81
2022-11-13T10:20:10.821Z,1021.82
2022-11-13T10:21:10.887Z,1021.76
2022-11-13T10:22:32.172Z,1021.72
2022-11-13T10:23:11.762Z,1021.73
2022-11-13T10:24:14.254Z,1021.70
2022-11-13T10:25:10.773Z,1021.73
2022-11-13T10:26:10.743Z,1021.72
2022-11-13T10:27:10.675Z,1021.70
2022-11-13T10:28:34.963Z,1021.73
2022-11-13T10:29:11.763Z,1021.68
2022-11-13T10:30:11.841Z,1021.63
2022-11-13T10:31:10.642Z,1021.64
2022-11-13T10:32:10.888Z,1021.64
2022-11-13T10:33:10.604Z,1021.65
2022-11-13T10:34:10.616Z,1021.62
2022-11-13T10:35:10.615Z,1021.57
2022-11-13T10:36:10.603Z,1021.56
2022-11-13T10:37:10.694Z,1021.54
2022-11-13T10:38:10.795Z,1021.55
2022-11-13T10:39:10.519Z,1021.54
2022-11-13T10:40:10.498Z,1021.55
2022-11-13T10:41:10.482Z,1021.52
2022-11-13T10:42:10.658Z,1021.55
2022-11-13T10:43:10.447Z,1021.56
2022-11-13T10:44:10.498Z,1021.51
2022-11-13T10:45:12.444Z,1021.49
2022-11-13T10:46:10.902Z,1021.49
2022-11-13T10:47:10.403Z,1021.48
2022-11-13T10:48:10.415Z,1021.48
2022-11-13T10:49:10.367Z,1021.47
2022-11-13T10:50:10.415Z,1021.44
2022-11-13T10:51:10.398Z,1021.48
2022-11-13T10:52:11.326Z,1021.44
2022-11-13T10:53:10.393Z,1021.43
2022-11-13T10:54:10.390Z,1021.41
2022-11-13T10:55:10.341Z,1021.40
2022-11-13T10:56:10.379Z,1021.41
2022-11-13T10:57:10.275Z,1021.40
2022-11-13T10:58:10.250Z,1021.38
2022-11-13T10:59:10.275Z,1021.36
2022-11-13T11:00:10.301Z,1021.34
2022-11-13T11:01:10.257Z,1021.33
2022-11-13T11:02:10.236Z,1021.31
2022-11-13T11:03:10.205Z,1021.33
2022-11-13T11:04:10.176Z,1021.28
2022-11-13T11:05:10.416Z,1021.30
2022-11-13T11:06:10.143Z,1021.30
2022-11-13T11:07:25.378Z,1021.25
2022-11-13T11:08:11.435Z,1021.25
2022-11-13T11:09:10.094Z,1021.26
2022-11-13T11:10:10.122Z,1021.24
2022-11-13T11:11:10.093Z,1021.21
2022-11-13T11:12:10.057Z,1021.21
2022-11-13T11:13:10.256Z,1021.17
2022-11-13T11:15:30.820Z,1021.14
2022-11-13T11:16:30.678Z,1021.06
2022-11-13T11:17:30.705Z,1021.08
2022-11-13T11:18:31.041Z,1021.04
2022-11-13T11:19:30.594Z,1021.05
2022-11-13T11:20:30.645Z,1021.02
2022-11-13T11:21:30.609Z,1021.03
2022-11-13T11:22:30.572Z,1021.02
2022-11-13T11:23:30.555Z,1020.99
2022-11-13T11:24:30.512Z,1021.03
2022-11-13T11:25:38.090Z,1020.99
2022-11-13T11:26:41.472Z,1020.98
2022-11-13T11:27:38.134Z,1020.96
2022-11-13T11:28:30.686Z,1020.96
2022-11-13T11:29:30.590Z,1020.97
2022-11-13T11:30:30.523Z,1020.93
2022-11-13T11:31:30.496Z,1020.91
2022-11-13T11:32:30.471Z,1020.87
2022-11-13T11:33:30.415Z,1020.85
2022-11-13T11:34:30.373Z,1020.85
2022-11-13T11:35:30.376Z,1020.85
2022-11-13T11:36:30.346Z,1020.82
2022-11-13T11:37:30.361Z,1020.78
2022-11-13T11:38:30.552Z,1020.76
2022-11-13T11:39:30.313Z,1020.78
2022-11-13T11:40:30.290Z,1020.71
2022-11-13T11:41:30.417Z,1020.75
2022-11-13T11:42:30.282Z,1020.71
2022-11-13T11:43:30.275Z,1020.73
2022-11-13T11:44:30.261Z,1020.66
2022-11-13T11:45:30.236Z,1020.66
2022-11-13T11:46:30.200Z,1020.65
2022-11-13T11:47:30.291Z,1020.66
2022-11-13T11:48:30.477Z,1020.63
2022-11-13T11:49:30.291Z,1020.57
2022-11-13T11:50:30.171Z,1020.55
2022-11-13T11:51:30.144Z,1020.50
2022-11-13T11:52:30.143Z,1020.53
2022-11-13T11:53:30.147Z,1020.49
2022-11-13T11:54:31.116Z,1020.50
2022-11-13T11:55:30.348Z,1020.39
2022-11-13T11:56:30.106Z,1020.40
2022-11-13T11:57:30.082Z,1020.41
2022-11-13T11:58:30.317Z,1020.41
2022-11-13T11:59:30.077Z,1020.41
2022-11-13T12:00:30.032Z,1020.41
2022-11-13T12:01:30.030Z,1020.40
2022-11-13T12:02:30.014Z,1020.44
2022-11-13T12:03:29.989Z,1020.43
2022-11-13T12:04:30.055Z,1020.41
2022-11-13T12:05:30.025Z,1020.41
2022-11-13T12:06:30.090Z,1020.44
2022-11-13T12:07:30.129Z,1020.42
2022-11-13T12:09:40.290Z,1020.39
2022-11-13T12:10:40.258Z,1020.38
2022-11-13T12:11:40.240Z,1020.35